Time;durP1;ratioP1;P1;durP2;ratioP2;P2;SDS_P1;SDS_P2;PMS_P1;PMS_P2;Temp;Humidity;BMP_temperature;BMP_pressure;BME280_temperature;BME280_humidity;BME280_pressure;Samples;Min_cycle;Max_cycle;Signal;HPM_P1;HPM_P2
2023/05/12 00:01:08;;;;;;;2.85;1.30;;;14.40;99.90;;;;;;5056324;28;20155;-76
2023/05/12 00:03:34;;;;;;;1.67;1.00;;;14.40;99.90;;;;;;5056340;28;20075;-76
2023/05/12 00:06:03;;;;;;;3.97;1.33;;;14.50;99.90;;;;;;5056445;28;20048;-75
2023/05/12 00:08:30;;;;;;;2.05;0.95;;;14.40;99.90;;;;;;5056009;28;20021;-75
2023/05/12 00:10:56;;;;;;;3.70;0.98;;;14.40;99.90;;;;;;5056375;28;20029;-75
2023/05/12 00:13:22;;;;;;;2.03;0.90;;;14.40;99.90;;;;;;5056541;28;20047;-75
2023/05/12 00:15:49;;;;;;;1.95;0.70;;;14.40;99.90;;;;;;5062712;28;20064;-76
2023/05/12 00:18:16;;;;;;;1.48;0.50;;;14.40;99.90;;;;;;5077817;28;20025;-76
2023/05/12 00:20:41;;;;;;;6.10;0.70;;;14.40;99.90;;;;;;5070835;28;20032;-76
2023/05/12 00:23:07;;;;;;;6.72;0.68;;;14.40;99.90;;;;;;5055880;28;20112;-76
2023/05/12 00:25:33;;;;;;;1.05;0.50;;;14.40;99.90;;;;;;5055831;28;20035;-76
2023/05/12 00:27:59;;;;;;;1.85;0.70;;;14.40;99.90;;;;;;5055160;28;20044;-76
2023/05/12 00:30:25;;;;;;;6.10;0.60;;;14.40;99.90;;;;;;5055538;28;20033;-75
2023/05/12 00:32:51;;;;;;;2.70;0.60;;;14.40;99.90;;;;;;5055945;28;20040;-76
2023/05/12 00:35:16;;;;;;;2.60;0.80;;;14.30;99.90;;;;;;5052660;28;20041;-76
2023/05/12 00:37:42;;;;;;;3.22;0.55;;;14.30;99.90;;;;;;5052322;28;20048;-76
2023/05/12 00:40:09;;;;;;;1.00;0.80;;;14.30;99.90;;;;;;5055297;28;20111;-76
2023/05/12 00:42:35;;;;;;;2.60;0.70;;;14.30;99.90;;;;;;5055591;28;20454;-75
2023/05/12 00:45:03;;;;;;;4.70;0.77;;;14.30;99.90;;;;;;5055325;28;20033;-76
2023/05/12 00:47:29;;;;;;;4.63;0.60;;;14.30;99.90;;;;;;5055412;28;20021;-76
2023/05/12 00:49:55;;;;;;;1.33;0.95;;;14.30;99.90;;;;;;5054993;28;20035;-76
2023/05/12 00:52:21;;;;;;;2.00;0.70;;;14.30;99.90;;;;;;5055300;28;20068;-75
2023/05/12 00:54:48;;;;;;;1.95;0.90;;;14.30;99.90;;;;;;5055397;28;20060;-76
2023/05/12 00:57:14;;;;;;;2.85;0.80;;;14.20;99.90;;;;;;5055326;28;20432;-76
2023/05/12 00:59:39;;;;;;;3.00;0.70;;;14.30;99.90;;;;;;5051942;28;20025;-75
2023/05/12 01:02:06;;;;;;;1.58;0.70;;;14.30;99.90;;;;;;5052088;28;20108;-76
2023/05/12 01:04:32;;;;;;;4.18;0.80;;;14.30;99.90;;;;;;5052856;28;20029;-76
2023/05/12 01:07:24;;;;;;;4.38;0.93;;;14.30;99.90;;;;;;5054744;28;20103;-75
2023/05/12 01:09:55;;;;;;;1.55;0.80;;;14.30;99.90;;;;;;5054811;28;20123;-75
2023/05/12 01:12:24;;;;;;;4.57;1.15;;;14.30;99.90;;;;;;5054772;28;20087;-75
2023/05/12 01:14:52;;;;;;;2.65;0.70;;;14.30;99.90;;;;;;5054570;28;20039;-75
2023/05/12 01:17:21;;;;;;;1.20;0.75;;;14.20;99.90;;;;;;5054668;28;20039;-76
2023/05/12 01:20:14;;;;;;;1.08;0.70;;;14.20;99.90;;;;;;5054749;28;20033;-75
2023/05/12 01:22:41;;;;;;;3.50;1.15;;;14.10;99.90;;;;;;5035458;28;20441;-75
2023/05/12 01:25:10;;;;;;;1.92;0.88;;;14.10;99.90;;;;;;5054663;28;20057;-75
2023/05/12 01:27:38;;;;;;;1.73;0.90;;;14.10;99.90;;;;;;5054202;28;20049;-75
2023/05/12 01:30:06;;;;;;;3.03;0.73;;;14.10;99.90;;;;;;5054374;28;20549;-76
2023/05/12 01:32:33;;;;;;;4.95;0.70;;;14.10;99.90;;;;;;5054527;28;20083;-75
2023/05/12 01:34:59;;;;;;;0.93;0.60;;;14.10;99.90;;;;;;5053985;28;20041;-75
2023/05/12 01:37:25;;;;;;;1.02;0.65;;;14.10;99.90;;;;;;5054327;28;20025;-75
2023/05/12 01:39:52;;;;;;;2.85;0.65;;;14.10;99.90;;;;;;5054473;28;20029;-75
2023/05/12 01:42:18;;;;;;;3.30;0.80;;;14.00;99.90;;;;;;5054168;28;20427;-75
2023/05/12 01:44:44;;;;;;;2.30;0.80;;;14.10;99.90;;;;;;5054488;28;20059;-75
2023/05/12 01:47:10;;;;;;;0.75;0.75;;;14.10;99.90;;;;;;5054482;28;20064;-75
2023/05/12 01:49:38;;;;;;;2.65;0.70;;;14.10;99.90;;;;;;5053579;28;20032;-75
2023/05/12 01:52:05;;;;;;;6.18;0.73;;;14.10;99.90;;;;;;5054352;28;20057;-75
2023/05/12 01:54:31;;;;;;;3.90;0.80;;;14.10;99.90;;;;;;5036314;28;20037;-75
2023/05/12 01:56:56;;;;;;;3.55;0.70;;;14.10;99.90;;;;;;5053619;28;20041;-76
2023/05/12 01:59:22;;;;;;;3.17;0.73;;;14.10;99.90;;;;;;5053971;28;20025;-75
2023/05/12 02:01:48;;;;;;;2.38;0.68;;;14.10;99.90;;;;;;5053861;28;20044;-75
2023/05/12 02:04:14;;;;;;;3.35;0.70;;;14.00;99.90;;;;;;5036148;28;20106;-76
2023/05/12 02:06:39;;;;;;;1.42;0.50;;;14.00;99.90;;;;;;5053866;28;20052;-76
2023/05/12 02:09:05;;;;;;;1.30;0.60;;;14.00;99.90;;;;;;5053886;28;20033;-75
2023/05/12 02:11:31;;;;;;;4.75;0.80;;;14.00;99.90;;;;;;5019482;28;20033;-75
2023/05/12 02:13:57;;;;;;;0.77;0.60;;;14.00;99.90;;;;;;5053875;28;20037;-75
2023/05/12 02:16:23;;;;;;;3.08;0.63;;;14.10;99.90;;;;;;5053537;28;20103;-75
2023/05/12 02:18:49;;;;;;;2.05;0.50;;;14.00;99.90;;;;;;5053879;28;20490;-75
2023/05/12 02:21:15;;;;;;;2.33;0.50;;;14.00;99.90;;;;;;5053681;28;20033;-75
2023/05/12 02:23:40;;;;;;;1.38;0.50;;;14.00;99.90;;;;;;5053698;28;20043;-75
2023/05/12 02:26:06;;;;;;;1.45;0.68;;;14.00;99.90;;;;;;5053854;28;20041;-75
2023/05/12 02:28:32;;;;;;;0.95;0.70;;;14.00;99.90;;;;;;5053150;28;20057;-75
2023/05/12 02:30:58;;;;;;;1.77;0.63;;;14.00;99.90;;;;;;5053307;28;20037;-75
2023/05/12 02:33:24;;;;;;;4.55;0.75;;;14.00;99.90;;;;;;5053464;28;20041;-74
2023/05/12 02:35:49;;;;;;;2.50;0.60;;;14.00;99.90;;;;;;5053221;28;20041;-75
2023/05/12 02:38:15;;;;;;;7.40;1.70;;;13.90;99.90;;;;;;5053413;28;20041;-75
2023/05/12 02:40:41;;;;;;;4.60;0.70;;;13.90;99.90;;;;;;5053304;28;20110;-75
2023/05/12 02:43:07;;;;;;;6.63;1.08;;;13.90;99.90;;;;;;5053397;28;20067;-76
2023/05/12 02:45:33;;;;;;;1.05;0.75;;;13.90;99.90;;;;;;5035229;28;20032;-75
2023/05/12 02:47:58;;;;;;;4.47;0.60;;;13.90;99.90;;;;;;5053389;28;20041;-75
2023/05/12 02:50:25;;;;;;;3.85;0.75;;;13.90;99.90;;;;;;5053535;28;20056;-75
2023/05/12 02:52:51;;;;;;;1.00;0.60;;;13.90;99.90;;;;;;5053038;28;20036;-76
2023/05/12 02:55:17;;;;;;;2.33;0.60;;;13.90;99.90;;;;;;5053017;28;20037;-76
2023/05/12 02:57:43;;;;;;;2.42;0.60;;;13.90;99.90;;;;;;5053003;28;20077;-75
2023/05/12 03:00:09;;;;;;;4.15;0.85;;;13.90;99.90;;;;;;5052582;28;20028;-75
2023/05/12 03:02:37;;;;;;;1.42;0.47;;;13.90;99.90;;;;;;5052815;28;20045;-75
2023/05/12 03:05:04;;;;;;;2.38;0.90;;;13.90;99.90;;;;;;5052943;28;20037;-75
2023/05/12 03:07:29;;;;;;;1.67;0.57;;;13.90;99.90;;;;;;5052982;28;20143;-75
2023/05/12 03:09:56;;;;;;;3.33;0.63;;;13.90;99.90;;;;;;5052582;28;20044;-75
2023/05/12 03:12:22;;;;;;;1.20;0.60;;;13.90;99.90;;;;;;5052427;28;20033;-74
2023/05/12 03:14:48;;;;;;;1.35;0.80;;;13.90;99.90;;;;;;5052669;28;20040;-76
2023/05/12 03:17:14;;;;;;;3.58;0.70;;;13.90;99.90;;;;;;5052912;28;20065;-76
2023/05/12 03:19:39;;;;;;;6.78;0.75;;;13.90;99.90;;;;;;5052962;28;20029;-75
2023/05/12 03:22:08;;;;;;;1.88;0.75;;;13.80;99.90;;;;;;5052714;28;20037;-76
2023/05/12 03:24:34;;;;;;;4.93;0.77;;;13.80;99.90;;;;;;5052756;28;20028;-75
2023/05/12 03:27:00;;;;;;;1.55;0.60;;;13.80;99.90;;;;;;5052751;28;20399;-76
2023/05/12 03:29:25;;;;;;;2.90;0.68;;;13.80;99.90;;;;;;5034731;28;20045;-75
2023/05/12 03:31:51;;;;;;;1.60;0.68;;;13.80;99.90;;;;;;5052687;28;20041;-76
2023/05/12 03:34:17;;;;;;;2.38;0.55;;;13.80;99.90;;;;;;5052492;28;20434;-75
2023/05/12 03:36:44;;;;;;;1.00;0.60;;;13.80;99.90;;;;;;5052526;28;20041;-75
2023/05/12 03:39:11;;;;;;;2.08;0.60;;;13.80;99.90;;;;;;5052695;28;20099;-75
2023/05/12 03:41:37;;;;;;;2.75;0.60;;;13.80;99.90;;;;;;5052728;28;20116;-75
2023/05/12 03:44:04;;;;;;;5.50;1.08;;;13.80;99.90;;;;;;5018151;28;20476;-75
2023/05/12 03:46:30;;;;;;;3.35;0.90;;;13.80;99.90;;;;;;5052508;28;20074;-76
2023/05/12 03:48:57;;;;;;;4.45;1.45;;;13.80;99.90;;;;;;5052098;28;20505;-76
2023/05/12 03:51:24;;;;;;;2.75;0.88;;;13.80;99.90;;;;;;5052529;28;20509;-75
2023/05/12 03:53:50;;;;;;;2.35;0.95;;;13.80;99.90;;;;;;5052565;28;20101;-75
2023/05/12 03:56:16;;;;;;;1.83;0.80;;;13.80;99.90;;;;;;5052298;28;20076;-75
2023/05/12 03:58:42;;;;;;;3.85;0.93;;;13.80;99.90;;;;;;5052509;28;20060;-76
2023/05/12 04:01:08;;;;;;;1.95;1.02;;;13.80;99.90;;;;;;5052475;28;20036;-76
2023/05/12 04:03:34;;;;;;;3.17;1.00;;;13.80;99.90;;;;;;5052482;28;20457;-76
2023/05/12 04:06:01;;;;;;;2.67;0.70;;;13.80;99.90;;;;;;5052311;28;20111;-75
2023/05/12 04:08:28;;;;;;;4.05;1.05;;;13.80;99.90;;;;;;5052350;28;20064;-75
2023/05/12 04:10:56;;;;;;;2.85;0.95;;;13.80;99.90;;;;;;5052043;28;20029;-75
2023/05/12 04:13:22;;;;;;;4.45;1.25;;;13.80;99.90;;;;;;5054966;28;20080;-75
2023/05/12 04:15:48;;;;;;;4.78;1.30;;;13.80;99.90;;;;;;5056328;28;20499;-75
2023/05/12 04:18:14;;;;;;;2.78;1.10;;;13.80;99.90;;;;;;5056152;28;20120;-75
2023/05/12 04:20:40;;;;;;;9.43;1.40;;;13.80;99.90;;;;;;5056411;28;20558;-75
2023/05/12 04:23:06;;;;;;;3.60;1.10;;;13.80;99.90;;;;;;5056166;28;20037;-75
2023/05/12 04:25:31;;;;;;;4.68;1.20;;;13.80;99.90;;;;;;5055988;28;20475;-74
2023/05/12 04:27:57;;;;;;;3.42;0.98;;;13.80;99.90;;;;;;5057408;28;20060;-76
2023/05/12 04:30:23;;;;;;;1.63;0.80;;;13.80;99.90;;;;;;5067273;28;20041;-75
2023/05/12 04:32:49;;;;;;;3.25;1.13;;;13.80;99.90;;;;;;5063319;28;20039;-76
2023/05/12 04:35:15;;;;;;;2.20;0.82;;;13.80;99.90;;;;;;5055456;28;20033;-76
2023/05/12 04:37:41;;;;;;;3.17;1.17;;;13.70;99.90;;;;;;5055319;28;20040;-75
2023/05/12 04:40:08;;;;;;;2.35;1.65;;;13.70;99.90;;;;;;5055218;28;20029;-75
2023/05/12 04:42:34;;;;;;;4.85;2.10;;;13.70;99.90;;;;;;5055134;28;20536;-75
2023/05/12 04:45:00;;;;;;;2.15;1.77;;;13.70;99.90;;;;;;5055512;28;20079;-75
2023/05/12 04:47:27;;;;;;;3.80;1.95;;;13.60;99.90;;;;;;5055507;28;20066;-75
2023/05/12 04:49:53;;;;;;;6.15;2.17;;;13.60;99.90;;;;;;5055310;28;20033;-76
2023/05/12 04:52:20;;;;;;;3.50;2.38;;;13.50;99.90;;;;;;5055405;28;20033;-75
2023/05/12 04:54:45;;;;;;;3.75;2.50;;;13.60;99.90;;;;;;5055192;28;20036;-77
2023/05/12 04:57:11;;;;;;;2.83;2.15;;;13.60;99.90;;;;;;5055281;28;20033;-75
2023/05/12 04:59:37;;;;;;;5.03;1.98;;;13.60;99.90;;;;;;5055231;28;20025;-76
2023/05/12 05:02:03;;;;;;;4.43;2.00;;;13.50;99.90;;;;;;5037280;28;20043;-76
2023/05/12 05:04:29;;;;;;;4.60;2.17;;;13.50;99.90;;;;;;5055252;28;20025;-76
2023/05/12 05:06:55;;;;;;;2.03;1.83;;;13.40;99.90;;;;;;5055002;28;20029;-76
2023/05/12 05:09:21;;;;;;;5.40;1.88;;;13.40;99.90;;;;;;5054605;28;20074;-76
2023/05/12 05:11:47;;;;;;;2.05;1.70;;;13.40;99.90;;;;;;5054808;28;20036;-76
2023/05/12 05:14:12;;;;;;;1.75;1.45;;;13.50;99.90;;;;;;5055016;28;20068;-75
2023/05/12 05:16:38;;;;;;;3.58;1.50;;;13.50;99.90;;;;;;5054916;28;20115;-75
2023/05/12 05:19:04;;;;;;;1.25;1.10;;;13.50;99.90;;;;;;5054560;28;20055;-75
2023/05/12 05:21:29;;;;;;;5.28;1.42;;;13.50;99.90;;;;;;5054782;28;20037;-75
2023/05/12 05:23:55;;;;;;;5.68;1.50;;;13.60;99.90;;;;;;5053407;28;20483;-75
2023/05/12 05:26:21;;;;;;;2.67;1.50;;;13.60;99.90;;;;;;5036418;28;20036;-75
2023/05/12 05:28:47;;;;;;;3.08;1.27;;;13.60;99.90;;;;;;5054501;28;20069;-76
2023/05/12 05:31:16;;;;;;;2.30;1.10;;;13.70;99.90;;;;;;5054547;28;20040;-75
2023/05/12 05:33:43;;;;;;;4.05;2.40;;;13.70;99.90;;;;;;5054672;28;20086;-76
2023/05/12 05:36:09;;;;;;;4.30;2.08;;;13.70;99.90;;;;;;5054329;28;20460;-75
2023/05/12 05:38:35;;;;;;;4.07;1.50;;;13.70;99.90;;;;;;5054327;28;20029;-75
2023/05/12 05:41:01;;;;;;;5.28;1.17;;;13.80;99.90;;;;;;5054410;28;20123;-76
2023/05/12 05:43:26;;;;;;;2.22;1.35;;;13.80;99.90;;;;;;5054320;28;20033;-75
2023/05/12 05:45:54;;;;;;;2.85;0.80;;;13.80;99.90;;;;;;5054112;28;20064;-75
2023/05/12 05:48:20;;;;;;;4.90;0.90;;;13.90;99.90;;;;;;5054297;28;20494;-75
2023/05/12 05:50:46;;;;;;;3.20;1.00;;;13.90;99.90;;;;;;5054081;28;20108;-75
2023/05/12 05:53:12;;;;;;;4.63;1.08;;;13.90;99.90;;;;;;5053804;28;20039;-76
2023/05/12 05:55:37;;;;;;;1.55;1.08;;;13.90;99.90;;;;;;5053798;28;20137;-76
2023/05/12 05:58:04;;;;;;;6.38;1.10;;;13.90;99.90;;;;;;5053961;28;20094;-76
2023/05/12 06:00:30;;;;;;;2.25;1.20;;;13.90;99.90;;;;;;5053753;28;20112;-76
2023/05/12 06:02:55;;;;;;;1.10;0.80;;;13.90;99.90;;;;;;5053998;28;20113;-75
2023/05/12 06:05:21;;;;;;;3.17;1.20;;;13.90;99.90;;;;;;5053838;28;20124;-74
2023/05/12 06:07:47;;;;;;;1.40;1.02;;;14.00;99.90;;;;;;5053921;28;20029;-75
2023/05/12 06:10:13;;;;;;;3.80;1.23;;;14.00;99.90;;;;;;5053761;28;20045;-76
2023/05/12 06:12:42;;;;;;;3.22;1.13;;;14.00;99.90;;;;;;5053854;28;20025;-76
2023/05/12 06:15:08;;;;;;;1.98;1.00;;;14.00;99.90;;;;;;5053543;28;20487;-76
2023/05/12 06:17:34;;;;;;;2.72;0.88;;;14.10;99.90;;;;;;5053420;28;20490;-75
2023/05/12 06:19:59;;;;;;;1.73;0.70;;;14.10;99.90;;;;;;5052510;28;20033;-77
2023/05/12 06:22:25;;;;;;;3.33;0.80;;;14.10;99.90;;;;;;5051702;28;20041;-85
2023/05/12 06:24:51;;;;;;;2.88;1.10;;;14.10;99.90;;;;;;5052481;28;20146;-80
2023/05/12 06:27:20;;;;;;;1.55;0.98;;;14.10;99.90;;;;;;5052139;28;20076;-80
2023/05/12 06:29:45;;;;;;;5.03;1.00;;;14.10;99.90;;;;;;5052636;28;20040;-79
2023/05/12 06:32:11;;;;;;;4.30;1.10;;;14.20;99.90;;;;;;5052981;28;20504;-82
2023/05/12 06:34:37;;;;;;;2.85;1.00;;;14.20;99.90;;;;;;5052654;28;20055;-80
2023/05/12 06:37:03;;;;;;;2.05;0.82;;;14.30;99.90;;;;;;5052819;28;20782;-79
2023/05/12 06:39:29;;;;;;;1.50;0.90;;;14.30;99.90;;;;;;5053059;28;20483;-81
2023/05/12 06:41:55;;;;;;;4.78;1.10;;;14.30;99.90;;;;;;5053020;28;20028;-82
2023/05/12 06:44:20;;;;;;;4.93;1.23;;;14.30;99.90;;;;;;5034921;28;20063;-83
2023/05/12 06:46:46;;;;;;;2.30;1.27;;;14.40;99.90;;;;;;5052787;28;20039;-80
2023/05/12 06:49:12;;;;;;;2.08;1.20;;;14.40;99.90;;;;;;5053222;28;20037;-82
2023/05/12 06:51:37;;;;;;;6.03;1.05;;;14.40;99.90;;;;;;5052917;28;20029;-83
2023/05/12 06:54:03;;;;;;;2.25;1.23;;;14.50;99.90;;;;;;5035008;28;20103;-81
2023/05/12 06:56:30;;;;;;;1.58;1.00;;;14.50;99.90;;;;;;5052681;28;20045;-83
2023/05/12 06:59:01;;;;;;;1.95;1.10;;;14.50;99.90;;;;;;5052567;28;20367;-81
2023/05/12 07:01:27;;;;;;;4.82;1.50;;;14.50;99.90;;;;;;5052824;28;20116;-83
2023/05/12 07:03:53;;;;;;;4.28;1.40;;;14.50;99.90;;;;;;5052614;28;20095;-84
2023/05/12 07:06:20;;;;;;;1.63;1.30;;;14.60;99.90;;;;;;5052759;28;20056;-82
2023/05/12 07:08:46;;;;;;;1.45;1.10;;;14.60;99.90;;;;;;5052624;28;20026;-84
2023/05/12 07:11:11;;;;;;;1.48;1.20;;;14.60;99.90;;;;;;5052485;28;20047;-85
2023/05/12 07:13:37;;;;;;;2.28;1.17;;;14.60;99.90;;;;;;5035633;28;20087;-84
2023/05/12 07:16:04;;;;;;;3.08;1.10;;;14.70;99.90;;;;;;5052992;28;20406;-83
2023/05/12 07:18:30;;;;;;;2.15;1.10;;;14.60;99.90;;;;;;5053003;28;20025;-84
2023/05/12 07:20:55;;;;;;;1.65;0.98;;;14.70;99.90;;;;;;5052585;28;20044;-83
2023/05/12 07:23:21;;;;;;;6.65;1.05;;;14.70;99.90;;;;;;5052704;28;20029;-83
2023/05/12 07:28:15;;;;;;;2.63;1.30;;;14.70;99.90;;;;;;5090818;28;20048;-78
2023/05/12 07:30:41;;;;;;;2.85;0.95;;;14.70;99.90;;;;;;5093835;28;20034;-83
2023/05/12 07:33:07;;;;;;;2.85;1.48;;;14.70;99.90;;;;;;5092932;28;20043;-81
2023/05/12 07:35:33;;;;;;;2.63;1.20;;;14.60;99.90;;;;;;5092713;28;20040;-79
2023/05/12 07:37:59;;;;;;;3.92;1.10;;;14.70;99.90;;;;;;5092683;28;20543;-84
2023/05/12 07:40:24;;;;;;;2.15;1.00;;;14.70;99.90;;;;;;5091989;28;20099;-79
2023/05/12 07:42:50;;;;;;;6.50;1.10;;;14.70;99.90;;;;;;5092624;28;20036;-86
2023/05/12 07:45:21;;;;;;;1.77;1.10;;;14.70;99.90;;;;;;5092777;28;20071;-82
2023/05/12 07:47:49;;;;;;;2.88;1.05;;;14.70;99.90;;;;;;5094542;28;20477;-79
2023/05/12 07:50:15;;;;;;;3.80;0.93;;;14.70;99.90;;;;;;5095929;28;20117;-82
2023/05/12 07:52:51;;;;;;;2.10;1.08;;;14.80;99.90;;;;;;5096024;28;20056;-84
2023/05/12 07:55:19;;;;;;;2.10;0.98;;;14.80;99.90;;;;;;5078784;28;20407;-86
2023/05/12 07:57:45;;;;;;;1.45;0.88;;;14.80;99.90;;;;;;5096834;28;20028;-83
2023/05/12 08:00:12;;;;;;;2.20;0.90;;;14.90;99.90;;;;;;5097050;28;20071;-85
2023/05/12 08:02:38;;;;;;;1.70;0.90;;;14.90;99.90;;;;;;5096624;28;20068;-83
2023/05/12 08:05:05;;;;;;;2.60;0.98;;;15.00;99.90;;;;;;5096513;28;20036;-86
2023/05/12 08:07:31;;;;;;;1.02;0.82;;;15.00;99.90;;;;;;5096544;28;20393;-81
2023/05/12 08:09:57;;;;;;;2.88;0.80;;;15.10;99.90;;;;;;5096150;28;20065;-88
2023/05/12 08:12:22;;;;;;;1.50;0.80;;;15.10;99.90;;;;;;5096479;28;20032;-83
2023/05/12 08:14:48;;;;;;;1.10;0.90;;;15.10;99.90;;;;;;5078528;28;20082;-84
2023/05/12 08:17:14;;;;;;;2.15;0.80;;;15.10;99.90;;;;;;5098351;28;20613;-86
2023/05/12 08:19:40;;;;;;;1.48;0.77;;;15.20;99.90;;;;;;5097278;28;20027;-88
2023/05/12 08:22:06;;;;;;;1.25;0.82;;;15.20;99.90;;;;;;5098551;28;20378;-86
2023/05/12 08:24:32;;;;;;;1.30;0.90;;;15.20;99.90;;;;;;5096675;28;20112;-86
2023/05/12 08:27:34;;;;;;;1.05;0.95;;;15.20;99.90;;;;;;5096651;28;20467;-87
2023/05/12 08:44:46;;;;;;;1.00;0.80;;;15.50;99.90;;;;;;4917710;29;19911;-88
2023/05/12 08:55:24;;;;;;;1.75;0.63;;;15.70;99.90;;;;;;4884176;29;20097;-87
2023/05/12 08:57:56;;;;;;;1.60;0.70;;;15.80;99.80;;;;;;4886439;29;20104;-84
2023/05/12 09:00:24;;;;;;;1.38;0.65;;;15.80;99.60;;;;;;4972068;28;20121;-83
2023/05/12 09:02:51;;;;;;;0.88;0.75;;;15.80;99.60;;;;;;5072573;28;20121;-83
2023/05/12 09:05:18;;;;;;;0.70;0.63;;;15.80;99.30;;;;;;5095739;28;20420;-87
2023/05/12 09:07:44;;;;;;;1.83;0.70;;;15.80;99.50;;;;;;5095785;28;20024;-82
2023/05/12 09:10:18;;;;;;;0.90;0.50;;;15.80;98.70;;;;;;5095748;28;20044;-82
2023/05/12 09:12:48;;;;;;;3.33;0.60;;;15.80;98.50;;;;;;5095588;28;20380;-85
2023/05/12 09:15:19;;;;;;;1.00;0.50;;;15.80;98.30;;;;;;5094975;28;20074;-83
2023/05/12 09:17:45;;;;;;;3.17;0.40;;;15.80;98.20;;;;;;5095472;28;20406;-81
2023/05/12 09:20:12;;;;;;;0.60;0.47;;;15.80;98.00;;;;;;5094403;28;20036;-86
2023/05/12 09:22:38;;;;;;;1.70;0.50;;;15.80;98.00;;;;;;5095208;28;20028;-85
2023/05/12 09:25:17;;;;;;;0.68;0.40;;;15.90;98.20;;;;;;5094178;28;20489;-86
2023/05/12 09:27:45;;;;;;;0.82;0.52;;;15.90;98.10;;;;;;5094766;28;20248;-87
2023/05/12 09:30:11;;;;;;;1.85;0.52;;;16.00;97.90;;;;;;5095301;28;20067;-85
2023/05/12 09:32:37;;;;;;;2.90;0.60;;;16.00;98.50;;;;;;5095610;28;20039;-85
2023/05/12 09:35:05;;;;;;;1.13;0.60;;;16.00;98.00;;;;;;5094853;28;20040;-88
2023/05/12 09:37:32;;;;;;;1.58;0.70;;;16.00;98.00;;;;;;5095117;28;20032;-89
2023/05/12 09:40:06;;;;;;;0.88;0.50;;;16.10;97.90;;;;;;5095199;28;20504;-87
2023/05/12 09:42:33;;;;;;;0.45;0.35;;;16.00;97.30;;;;;;5093765;28;20509;-89
2023/05/12 09:45:03;;;;;;;0.50;0.30;;;16.00;97.10;;;;;;5094446;28;20032;-87
2023/05/12 09:47:36;;;;;;;0.73;0.32;;;16.00;96.80;;;;;;5095316;28;20044;-88
2023/05/12 09:50:04;;;;;;;1.67;0.52;;;16.00;97.20;;;;;;5095981;28;20032;-86
2023/05/12 09:52:34;;;;;;;0.40;0.25;;;16.10;97.00;;;;;;5095492;28;20501;-86
2023/05/12 09:55:09;;;;;;;0.95;0.30;;;16.10;96.80;;;;;;5094676;28;20110;-87
2023/05/12 09:57:43;;;;;;;0.32;0.30;;;16.00;96.60;;;;;;5095382;28;20044;-87
2023/05/12 10:00:12;;;;;;;0.88;0.28;;;16.00;96.80;;;;;;5094643;28;20031;-83
2023/05/12 10:02:43;;;;;;;1.38;0.30;;;16.00;97.00;;;;;;5093946;28;20489;-84
2023/05/12 10:05:18;;;;;;;0.85;0.40;;;16.10;96.30;;;;;;5095544;28;20090;-84
2023/05/12 10:07:47;;;;;;;1.55;0.30;;;16.10;96.60;;;;;;5094552;28;20096;-84
2023/05/12 10:10:18;;;;;;;0.73;0.20;;;16.10;96.60;;;;;;5093722;28;20405;-84
2023/05/12 10:12:48;;;;;;;0.50;0.40;;;16.10;96.50;;;;;;5092175;28;20089;-84
2023/05/12 10:36:18;;;;;;;4.55;1.40;;;16.20;96.10;;;;;;4953406;28;20054;-86
2023/05/12 10:38:54;;;;;;;4.68;1.00;;;16.20;97.20;;;;;;4949376;29;20111;-84
2023/05/12 10:44:55;;;;;;;2.03;0.90;;;16.30;97.50;;;;;;4916303;29;20044;-84
2023/05/12 10:47:36;;;;;;;1.38;1.05;;;16.30;97.90;;;;;;4957640;28;20120;-82
2023/05/12 10:50:02;;;;;;;1.88;0.82;;;16.30;98.50;;;;;;5070819;28;20044;-82
2023/05/12 10:52:28;;;;;;;2.45;0.80;;;16.30;98.20;;;;;;5093691;28;20448;-81
2023/05/12 10:55:02;;;;;;;2.20;0.75;;;16.30;98.20;;;;;;5093048;28;20028;-82
2023/05/12 10:57:29;;;;;;;2.38;0.30;;;16.30;97.80;;;;;;5093098;28;20379;-82
2023/05/12 10:59:59;;;;;;;0.45;0.20;;;16.30;96.90;;;;;;5093096;28;20030;-81
2023/05/12 11:02:29;;;;;;;0.60;0.40;;;16.30;96.30;;;;;;5093253;28;20439;-82
2023/05/12 11:05:01;;;;;;;0.55;0.40;;;16.30;96.00;;;;;;5093357;28;20412;-82
2023/05/12 11:07:30;;;;;;;0.55;0.20;;;16.20;95.20;;;;;;5093061;28;20028;-81
2023/05/12 11:09:58;;;;;;;0.80;0.30;;;16.30;95.20;;;;;;5092982;28;20488;-82
2023/05/12 11:12:26;;;;;;;1.52;0.28;;;16.30;94.90;;;;;;5092674;28;20489;-81
2023/05/12 11:14:52;;;;;;;3.33;0.30;;;16.30;94.30;;;;;;5089531;28;20041;-81
2023/05/12 11:17:18;;;;;;;2.30;0.30;;;16.30;95.00;;;;;;5089874;28;20040;-82
2023/05/12 11:19:49;;;;;;;0.40;0.30;;;16.30;95.30;;;;;;5092635;28;20027;-78
2023/05/12 11:22:20;;;;;;;1.65;0.40;;;16.40;94.80;;;;;;5092907;28;20035;-81
2023/05/12 11:24:47;;;;;;;0.47;0.30;;;16.30;94.70;;;;;;5093284;28;20074;-79
2023/05/12 11:27:15;;;;;;;1.63;0.30;;;16.40;94.60;;;;;;5092690;28;20048;-81
2023/05/12 11:29:42;;;;;;;0.25;0.22;;;16.40;95.40;;;;;;5092595;28;20056;-81
2023/05/12 11:32:09;;;;;;;0.65;0.30;;;16.30;95.60;;;;;;5092489;28;20549;-80
2023/05/12 11:34:35;;;;;;;0.77;0.40;;;16.40;96.00;;;;;;5092863;28;20085;-81
2023/05/12 11:37:03;;;;;;;1.42;0.50;;;16.40;96.30;;;;;;5092388;28;20586;-81
2023/05/12 11:39:31;;;;;;;1.98;0.43;;;16.40;96.50;;;;;;5089435;28;20106;-79
2023/05/12 11:42:08;;;;;;;1.05;0.55;;;16.50;96.50;;;;;;5081744;28;20043;-81
2023/05/12 11:44:35;;;;;;;0.50;0.50;;;16.50;96.80;;;;;;5070112;28;20037;-79
2023/05/12 11:47:10;;;;;;;1.33;0.40;;;16.60;96.80;;;;;;5072826;28;20036;-77
2023/05/12 11:49:54;;;;;;;1.98;0.43;;;16.70;97.40;;;;;;5072891;28;20040;-79
2023/05/12 11:52:22;;;;;;;2.05;0.60;;;16.80;97.80;;;;;;5072799;28;20033;-75
2023/05/12 11:54:52;;;;;;;0.80;0.38;;;16.90;97.40;;;;;;5072464;28;20086;-76
2023/05/12 11:57:31;;;;;;;0.82;0.50;;;16.90;97.00;;;;;;5073044;28;20466;-77
2023/05/12 12:00:11;;;;;;;7.40;0.57;;;17.00;97.00;;;;;;5072855;28;20033;-76
2023/05/12 12:05:58;;;;;;;0.75;0.30;;;17.20;95.80;;;;;;5030372;28;20040;-76
2023/05/12 12:12:14;;;;;;;1.33;0.50;;;17.30;95.60;;;;;;5024888;28;20124;-76
2023/05/12 12:22:42;;;;;;;1.05;0.40;;;17.50;95.40;;;;;;4848944;29;20086;-75
2023/05/12 12:25:30;;;;;;;1.20;0.40;;;17.70;94.80;;;;;;4882550;29;20372;-76
2023/05/12 12:27:56;;;;;;;0.20;0.20;;;17.80;93.40;;;;;;4951817;28;20445;-76
2023/05/12 12:30:22;;;;;;;0.70;0.50;;;17.90;93.00;;;;;;4980132;28;20117;-77
2023/05/12 12:32:48;;;;;;;0.57;0.40;;;17.90;92.80;;;;;;5033841;28;20029;-76
2023/05/12 12:35:14;;;;;;;0.77;0.50;;;17.90;92.40;;;;;;5055379;28;20112;-79
2023/05/12 12:37:40;;;;;;;1.75;0.40;;;18.00;92.80;;;;;;5055517;28;20107;-83
2023/05/12 12:40:07;;;;;;;1.27;0.40;;;18.00;92.70;;;;;;5055104;28;20029;-80
2023/05/12 12:42:34;;;;;;;0.90;0.50;;;18.10;92.00;;;;;;5055370;28;20059;-77
2023/05/12 12:45:04;;;;;;;3.70;0.47;;;18.10;92.60;;;;;;5054963;28;20076;-77
2023/05/12 12:47:30;;;;;;;3.03;0.50;;;18.10;92.70;;;;;;5036919;28;20433;-77
2023/05/12 12:49:56;;;;;;;0.40;0.32;;;18.10;92.60;;;;;;5055128;28;20040;-78
2023/05/12 12:52:22;;;;;;;3.80;0.50;;;18.20;91.60;;;;;;5055130;28;20029;-76
2023/05/12 12:54:48;;;;;;;0.82;0.30;;;18.20;91.20;;;;;;5055051;28;20100;-77
2023/05/12 12:57:14;;;;;;;0.60;0.38;;;18.20;91.00;;;;;;5054819;28;20049;-83
2023/05/12 12:59:39;;;;;;;1.90;0.50;;;18.30;91.20;;;;;;5054883;28;20028;-82
2023/05/12 13:02:05;;;;;;;1.40;0.40;;;18.30;90.70;;;;;;5055188;28;20182;-81
2023/05/12 13:04:31;;;;;;;0.52;0.40;;;18.40;90.90;;;;;;5054757;28;20047;-83
2023/05/12 13:06:57;;;;;;;1.35;0.35;;;18.40;90.60;;;;;;5055031;28;20120;-84
2023/05/12 13:09:23;;;;;;;0.63;0.43;;;18.50;90.20;;;;;;5054779;28;20025;-82
2023/05/12 13:11:49;;;;;;;0.88;0.30;;;18.50;89.80;;;;;;5054785;28;20037;-83
2023/05/12 13:14:15;;;;;;;1.80;0.35;;;18.50;89.90;;;;;;5054860;28;20112;-83
2023/05/12 13:16:41;;;;;;;1.00;0.30;;;18.60;89.60;;;;;;5054451;28;20178;-84
2023/05/12 13:19:07;;;;;;;0.80;0.30;;;18.60;89.20;;;;;;5054596;28;20445;-83
2023/05/12 13:21:33;;;;;;;0.77;0.20;;;18.60;89.70;;;;;;5054802;28;20033;-83
2023/05/12 13:23:59;;;;;;;0.77;0.40;;;18.60;86.80;;;;;;5055132;28;20665;-83
2023/05/12 13:26:26;;;;;;;1.48;0.43;;;18.60;88.10;;;;;;5054446;28;20521;-85
2023/05/12 13:28:52;;;;;;;1.17;0.35;;;18.60;86.20;;;;;;5054457;28;20029;-80
2023/05/12 13:31:18;;;;;;;2.67;0.60;;;18.60;87.40;;;;;;5055116;28;20091;-83
2023/05/12 13:33:44;;;;;;;2.13;0.40;;;18.60;87.30;;;;;;5055075;28;20033;-83
2023/05/12 13:36:11;;;;;;;0.35;0.20;;;18.60;85.00;;;;;;5054775;28;20063;-82
2023/05/12 13:38:40;;;;;;;2.38;0.38;;;18.60;84.60;;;;;;5054760;28;20399;-84
2023/05/12 13:41:35;;;;;;;0.88;0.32;;;18.70;81.90;;;;;;5054618;28;20090;-83
2023/05/12 13:45:18;;;;;;;0.63;0.30;;;18.60;85.60;;;;;;5054357;28;20124;-83
2023/05/12 13:48:42;;;;;;;3.75;0.43;;;18.60;84.30;;;;;;4971396;28;20100;-82
2023/05/12 13:55:43;;;;;;;0.98;0.43;;;18.50;80.10;;;;;;4915966;29;20032;-84
2023/05/12 14:02:10;;;;;;;3.28;0.55;;;18.40;84.50;;;;;;4859624;29;20032;-84
2023/05/12 14:04:43;;;;;;;1.88;0.22;;;18.40;84.00;;;;;;4868405;29;20041;-83